Time;durP1;ratioP1;P1;durP2;ratioP2;P2;SDS_P1;SDS_P2;PMS_P1;PMS_P2;Temp;Humidity;BMP_temperature;BMP_pressure;BME280_temperature;BME280_humidity;BME280_pressure;Samples;Min_cycle;Max_cycle;Signal;HPM_P1;HPM_P2
2021/05/24 00:02:06;;;;;;;4.27;3.30;;;10.60;98.10;;;;;;4995968;28;20477;-88
2021/05/24 00:04:32;;;;;;;9.17;3.97;;;10.60;97.70;;;;;;4996739;28;20490;-89
2021/05/24 00:06:59;;;;;;;5.73;3.13;;;10.60;97.70;;;;;;4997369;28;20446;-88
2021/05/24 00:09:25;;;;;;;7.30;3.13;;;10.60;98.10;;;;;;5009810;28;20444;-88
2021/05/24 00:11:52;;;;;;;7.10;3.07;;;10.50;98.30;;;;;;5011103;28;20459;-88
2021/05/24 00:14:19;;;;;;;5.03;3.07;;;10.50;98.40;;;;;;4996009;28;20489;-89
2021/05/24 00:16:46;;;;;;;4.23;3.43;;;10.50;98.70;;;;;;4996508;28;20517;-88
2021/05/24 00:19:12;;;;;;;4.43;3.23;;;10.50;98.80;;;;;;4996443;28;21007;-89
2021/05/24 00:21:38;;;;;;;4.20;2.90;;;10.50;99.00;;;;;;4996744;28;20482;-89
2021/05/24 00:24:07;;;;;;;5.17;3.40;;;10.50;99.00;;;;;;4994394;28;20439;-88
2021/05/24 00:26:33;;;;;;;4.80;3.40;;;10.40;98.90;;;;;;4995492;28;20807;-89
2021/05/24 00:28:59;;;;;;;3.87;3.03;;;10.40;99.20;;;;;;4996823;28;20458;-89
2021/05/24 00:31:26;;;;;;;4.70;3.10;;;10.40;98.60;;;;;;4997125;28;20490;-88
2021/05/24 00:33:52;;;;;;;3.63;3.17;;;10.40;98.50;;;;;;4997114;28;20455;-88
2021/05/24 00:36:18;;;;;;;4.17;3.00;;;10.40;98.80;;;;;;4995932;28;20475;-88
2021/05/24 00:38:45;;;;;;;5.67;3.27;;;10.40;98.40;;;;;;4995970;28;20446;-88
2021/05/24 00:41:12;;;;;;;5.07;3.57;;;10.30;98.70;;;;;;4996143;28;20522;-88
2021/05/24 00:43:39;;;;;;;5.10;3.10;;;10.30;98.70;;;;;;5007806;28;20435;-87
2021/05/24 00:46:05;;;;;;;4.83;3.27;;;10.20;98.90;;;;;;5011365;28;20446;-88
2021/05/24 00:48:31;;;;;;;2.70;2.50;;;10.20;99.40;;;;;;5008129;28;20458;-88
2021/05/24 00:50:57;;;;;;;4.20;3.40;;;10.20;99.50;;;;;;4995348;28;20467;-88
2021/05/24 00:53:24;;;;;;;4.17;2.63;;;10.20;99.60;;;;;;4996617;28;20451;-89
2021/05/24 00:55:50;;;;;;;4.70;3.23;;;10.20;99.60;;;;;;5000012;28;20459;-88
2021/05/24 00:58:18;;;;;;;4.50;3.47;;;10.20;99.60;;;;;;5006647;28;20443;-88
2021/05/24 01:00:47;;;;;;;4.23;3.60;;;10.20;99.50;;;;;;5015725;28;20490;-88
2021/05/24 01:03:15;;;;;;;7.73;3.50;;;10.20;99.50;;;;;;4997278;28;20500;-89
2021/05/24 01:05:44;;;;;;;3.23;2.93;;;10.20;99.90;;;;;;4996786;28;20463;-89
2021/05/24 01:08:12;;;;;;;4.07;3.23;;;10.20;99.90;;;;;;5023334;28;20426;-88
2021/05/24 01:10:39;;;;;;;5.10;3.73;;;10.10;99.90;;;;;;5019311;28;20459;-88
2021/05/24 01:13:09;;;;;;;4.47;3.20;;;10.10;99.90;;;;;;4994045;28;20967;-88
2021/05/24 01:15:37;;;;;;;3.27;3.03;;;10.10;99.90;;;;;;5006556;28;20527;-88
2021/05/24 01:18:04;;;;;;;3.43;3.03;;;10.00;99.90;;;;;;5010309;28;20454;-88
2021/05/24 01:20:31;;;;;;;4.00;3.33;;;10.10;99.90;;;;;;4997022;28;20455;-88
2021/05/24 01:23:07;;;;;;;4.20;3.13;;;10.00;99.90;;;;;;4995524;28;20443;-89
2021/05/24 01:25:36;;;;;;;5.80;3.63;;;10.00;99.90;;;;;;4992867;28;20439;-89
2021/05/24 01:28:04;;;;;;;6.53;3.63;;;10.10;99.90;;;;;;4994917;28;20471;-88
2021/05/24 01:30:31;;;;;;;5.30;3.43;;;10.10;99.90;;;;;;4994781;28;20562;-89
2021/05/24 01:32:58;;;;;;;4.40;3.30;;;10.10;99.90;;;;;;4991899;28;20452;-89
2021/05/24 01:35:24;;;;;;;5.13;3.60;;;10.10;99.90;;;;;;5007520;28;20455;-88
2021/05/24 01:37:51;;;;;;;4.83;3.83;;;10.10;99.90;;;;;;5004513;28;20454;-89
2021/05/24 01:40:20;;;;;;;4.83;4.33;;;10.00;99.90;;;;;;4995081;28;20455;-88
2021/05/24 01:42:46;;;;;;;6.60;3.70;;;10.00;99.90;;;;;;4996428;28;21014;-88
2021/05/24 01:45:14;;;;;;;4.73;3.20;;;10.00;99.90;;;;;;4994461;28;20455;-88
2021/05/24 01:47:43;;;;;;;6.50;3.90;;;10.00;99.90;;;;;;4994826;28;20974;-88
2021/05/24 01:50:11;;;;;;;9.07;4.33;;;10.00;99.90;;;;;;5004142;28;20517;-87
2021/05/24 01:52:37;;;;;;;4.80;3.80;;;9.90;99.90;;;;;;5020702;28;20428;-88
2021/05/24 01:55:05;;;;;;;5.17;4.63;;;9.90;99.90;;;;;;5002003;28;20432;-88
2021/05/24 01:57:32;;;;;;;4.87;3.67;;;9.90;99.90;;;;;;5015746;28;20466;-89
2021/05/24 01:59:58;;;;;;;4.33;3.53;;;9.90;99.90;;;;;;4996310;28;20437;-88
2021/05/24 02:02:24;;;;;;;7.80;4.90;;;9.80;99.90;;;;;;5003099;28;20466;-88
2021/05/24 02:04:50;;;;;;;4.37;3.97;;;9.80;99.90;;;;;;4995728;28;20447;-89
2021/05/24 02:07:17;;;;;;;4.10;3.70;;;9.70;99.90;;;;;;5010689;28;20437;-88
2021/05/24 02:09:44;;;;;;;4.40;4.00;;;9.70;99.90;;;;;;5012787;28;20443;-89
2021/05/24 02:12:10;;;;;;;5.23;3.30;;;9.70;99.90;;;;;;4995649;28;20467;-88
2021/05/24 02:14:37;;;;;;;3.40;3.10;;;9.60;99.90;;;;;;4994467;28;20450;-88
2021/05/24 02:17:04;;;;;;;3.73;3.43;;;9.60;99.90;;;;;;5003038;28;20475;-88
2021/05/24 02:19:30;;;;;;;4.37;3.40;;;9.60;99.90;;;;;;5005663;28;20447;-89
2021/05/24 02:21:56;;;;;;;5.03;3.30;;;9.60;99.90;;;;;;4994497;28;20518;-88
2021/05/24 02:24:23;;;;;;;5.60;3.00;;;9.60;99.90;;;;;;4993934;28;20821;-88
2021/05/24 02:26:49;;;;;;;7.30;3.87;;;9.60;99.90;;;;;;4994246;28;20435;-87
2021/05/24 02:29:15;;;;;;;3.90;3.53;;;9.60;99.90;;;;;;5009581;28;20445;-89
2021/05/24 02:31:42;;;;;;;5.27;3.97;;;9.50;99.90;;;;;;4995856;28;20464;-88
2021/05/24 02:34:09;;;;;;;7.17;4.10;;;9.50;99.90;;;;;;4992316;28;20439;-89
2021/05/24 02:36:35;;;;;;;3.53;3.23;;;9.50;99.90;;;;;;4993929;28;20620;-89
2021/05/24 02:39:05;;;;;;;3.57;3.30;;;9.50;99.90;;;;;;5008982;28;20419;-87
2021/05/24 02:41:32;;;;;;;5.63;3.97;;;9.50;99.90;;;;;;5019372;28;20443;-88
2021/05/24 02:43:58;;;;;;;4.17;3.77;;;9.50;99.90;;;;;;5019067;28;20450;-88
2021/05/24 02:46:24;;;;;;;4.60;3.63;;;9.50;99.90;;;;;;5018613;28;20423;-88
2021/05/24 02:48:51;;;;;;;5.23;3.17;;;9.50;99.90;;;;;;5016082;28;20546;-88
2021/05/24 02:51:17;;;;;;;3.70;3.33;;;9.50;99.90;;;;;;5012028;28;20455;-88
2021/05/24 02:53:44;;;;;;;7.53;3.47;;;9.50;99.90;;;;;;5007296;28;20439;-87
2021/05/24 02:56:10;;;;;;;3.73;3.30;;;9.50;99.90;;;;;;5017761;28;20467;-89
2021/05/24 02:58:36;;;;;;;3.63;3.30;;;9.60;99.90;;;;;;5018714;28;20506;-87
2021/05/24 03:01:02;;;;;;;5.77;4.20;;;9.50;99.90;;;;;;5018546;28;20447;-88
2021/05/24 03:03:30;;;;;;;5.73;3.70;;;9.60;99.90;;;;;;5017110;28;20463;-88
2021/05/24 03:06:00;;;;;;;4.20;3.50;;;9.60;99.90;;;;;;5005872;28;20602;-89
2021/05/24 03:08:26;;;;;;;5.27;3.40;;;9.60;99.90;;;;;;4995178;28;20439;-88
2021/05/24 03:10:52;;;;;;;4.83;3.60;;;9.50;99.90;;;;;;4996493;28;20832;-89
2021/05/24 03:13:19;;;;;;;3.77;3.40;;;9.50;99.90;;;;;;4996113;28;20461;-89
2021/05/24 03:15:45;;;;;;;4.40;3.90;;;9.50;99.90;;;;;;4998275;28;20454;-89
2021/05/24 03:18:11;;;;;;;9.40;4.40;;;9.50;99.90;;;;;;4995079;28;20447;-88
2021/05/24 03:20:37;;;;;;;7.30;3.83;;;9.50;99.90;;;;;;4994895;28;20474;-89
2021/05/24 03:23:04;;;;;;;4.13;3.50;;;9.40;99.90;;;;;;4995275;28;20450;-88
2021/05/24 03:25:31;;;;;;;5.40;3.10;;;9.50;99.90;;;;;;4994608;28;20442;-88
2021/05/24 03:27:57;;;;;;;5.77;3.80;;;9.50;99.90;;;;;;4995075;28;20459;-89
2021/05/24 03:30:23;;;;;;;4.80;4.10;;;9.50;99.90;;;;;;4992864;28;20463;-88
2021/05/24 03:32:50;;;;;;;4.20;3.67;;;9.60;99.90;;;;;;4994182;28;20427;-89
2021/05/24 03:35:16;;;;;;;4.67;4.17;;;9.50;99.90;;;;;;4993122;28;20786;-88
2021/05/24 03:37:43;;;;;;;4.50;4.10;;;9.50;99.90;;;;;;4995624;28;20558;-88
2021/05/24 03:40:12;;;;;;;8.50;3.90;;;9.50;99.90;;;;;;4996473;28;20447;-88
2021/05/24 03:42:39;;;;;;;5.47;4.03;;;9.50;99.90;;;;;;4996869;28;20458;-89
2021/05/24 03:45:08;;;;;;;7.27;4.57;;;9.50;99.90;;;;;;4997076;28;20871;-88
2021/05/24 03:47:35;;;;;;;5.30;4.30;;;9.50;99.90;;;;;;4993014;28;20447;-89
2021/05/24 03:50:01;;;;;;;7.90;4.00;;;9.50;99.90;;;;;;4996626;28;20443;-87
2021/05/24 03:52:27;;;;;;;3.77;3.40;;;9.60;99.90;;;;;;4997045;28;20458;-88
2021/05/24 03:54:53;;;;;;;5.97;4.10;;;9.60;99.90;;;;;;5014405;28;20438;-86
2021/05/24 03:57:20;;;;;;;4.40;4.07;;;9.60;99.90;;;;;;5020996;28;20462;-87
2021/05/24 03:59:47;;;;;;;6.43;4.37;;;9.60;99.90;;;;;;5000477;28;20436;-88
2021/05/24 04:02:13;;;;;;;4.67;3.50;;;9.60;99.90;;;;;;5020707;28;20463;-87
2021/05/24 04:04:40;;;;;;;3.70;3.40;;;9.60;99.90;;;;;;5004533;28;20447;-88
2021/05/24 04:07:09;;;;;;;11.73;3.60;;;9.60;99.90;;;;;;5011282;28;20470;-87
2021/05/24 04:09:35;;;;;;;4.70;3.40;;;9.60;99.90;;;;;;5017414;28;20458;-88
2021/05/24 04:12:02;;;;;;;3.70;3.40;;;9.50;99.90;;;;;;5021430;28;20446;-88
2021/05/24 04:14:29;;;;;;;5.47;4.00;;;9.60;99.90;;;;;;5032860;28;20439;-88
2021/05/24 04:16:55;;;;;;;6.33;3.63;;;9.60;99.90;;;;;;5017926;28;20490;-88
2021/05/24 04:19:22;;;;;;;3.70;3.03;;;9.60;99.90;;;;;;5018035;28;20508;-86
2021/05/24 04:21:48;;;;;;;4.23;3.50;;;9.70;99.90;;;;;;4999269;28;20574;-87
2021/05/24 04:24:15;;;;;;;4.00;3.30;;;9.60;99.90;;;;;;4998521;28;20459;-87
2021/05/24 04:26:41;;;;;;;6.07;3.57;;;9.60;99.90;;;;;;5013916;28;20431;-87
2021/05/24 04:29:08;;;;;;;4.33;3.30;;;9.60;99.90;;;;;;4999394;28;20447;-87
2021/05/24 04:31:35;;;;;;;4.20;3.80;;;9.70;99.90;;;;;;4996797;28;20475;-87
2021/05/24 04:34:02;;;;;;;4.10;3.33;;;9.70;99.90;;;;;;4996676;28;20455;-87
2021/05/24 04:36:28;;;;;;;5.50;3.87;;;9.80;99.90;;;;;;5002032;28;20474;-86
2021/05/24 04:38:54;;;;;;;3.80;3.37;;;9.90;99.90;;;;;;5016166;28;20449;-87
2021/05/24 04:41:20;;;;;;;4.00;3.40;;;9.90;99.90;;;;;;5029028;28;20470;-87
2021/05/24 04:43:47;;;;;;;6.03;3.90;;;10.00;99.90;;;;;;5027382;28;20930;-87
2021/05/24 04:46:13;;;;;;;3.50;3.10;;;10.00;99.90;;;;;;5030019;28;20449;-87
2021/05/24 04:48:40;;;;;;;3.50;3.20;;;10.00;99.90;;;;;;5019781;28;20446;-87
2021/05/24 04:51:06;;;;;;;5.67;3.60;;;10.00;99.90;;;;;;5024281;28;20471;-87
2021/05/24 04:53:33;;;;;;;4.57;3.23;;;10.00;99.90;;;;;;4999408;28;20458;-87
2021/05/24 04:55:59;;;;;;;3.43;2.87;;;10.00;99.90;;;;;;4996910;28;20487;-88
2021/05/24 04:58:26;;;;;;;4.90;3.40;;;10.10;99.90;;;;;;5010334;28;20459;-88
2021/05/24 05:00:52;;;;;;;3.57;3.27;;;10.10;99.90;;;;;;5030793;28;20454;-88
2021/05/24 05:03:18;;;;;;;4.70;3.40;;;10.20;99.90;;;;;;5027716;28;20454;-87
2021/05/24 05:05:46;;;;;;;3.50;3.20;;;10.20;99.90;;;;;;5017475;28;20486;-88
2021/05/24 05:08:12;;;;;;;4.83;4.00;;;10.20;99.90;;;;;;5009532;28;20448;-87
2021/05/24 05:10:38;;;;;;;5.00;3.77;;;10.30;99.90;;;;;;5012104;28;21038;-87
2021/05/24 05:13:04;;;;;;;4.40;4.00;;;10.40;99.90;;;;;;4998319;28;20459;-87
2021/05/24 05:15:31;;;;;;;5.73;4.30;;;10.40;99.90;;;;;;4999533;28;20447;-88
2021/05/24 05:17:57;;;;;;;3.77;3.37;;;10.50;99.90;;;;;;5006358;28;20482;-87
2021/05/24 05:20:23;;;;;;;6.37;3.60;;;10.60;99.90;;;;;;4996735;28;20548;-88
2021/05/24 05:22:50;;;;;;;4.83;4.43;;;10.60;99.90;;;;;;4997651;28;20842;-88
2021/05/24 05:25:17;;;;;;;4.50;3.67;;;10.70;99.90;;;;;;5015570;28;20447;-88
2021/05/24 05:27:43;;;;;;;4.83;3.90;;;10.80;99.90;;;;;;5023859;28;20450;-87
2021/05/24 05:30:10;;;;;;;4.60;4.10;;;10.90;99.90;;;;;;5035487;28;20470;-87
2021/05/24 05:32:37;;;;;;;3.53;3.23;;;11.00;99.90;;;;;;5015240;28;20996;-87
2021/05/24 05:35:04;;;;;;;3.90;3.30;;;11.20;99.90;;;;;;5015129;28;20446;-87
2021/05/24 05:37:30;;;;;;;4.97;4.03;;;11.10;99.90;;;;;;5015273;28;20504;-88
2021/05/24 05:39:57;;;;;;;6.53;4.30;;;11.10;99.90;;;;;;5010452;28;20465;-88
2021/05/24 05:42:24;;;;;;;4.90;4.17;;;11.20;99.90;;;;;;4994775;28;20545;-88
2021/05/24 05:44:50;;;;;;;3.67;3.37;;;11.20;99.90;;;;;;4994890;28;20447;-88
2021/05/24 05:47:17;;;;;;;6.33;3.50;;;11.30;99.90;;;;;;4994843;28;20451;-88
2021/05/24 05:49:47;;;;;;;4.43;4.03;;;11.30;99.80;;;;;;5001162;28;20465;-88
2021/05/24 05:52:15;;;;;;;4.60;3.70;;;11.30;99.60;;;;;;5010468;28;20467;-88
2021/05/24 05:54:41;;;;;;;10.27;4.27;;;11.30;99.70;;;;;;5014552;28;20450;-88
2021/05/24 05:57:09;;;;;;;3.90;3.60;;;11.30;99.60;;;;;;5014534;28;21016;-88
2021/05/24 05:59:35;;;;;;;4.20;3.80;;;11.30;99.90;;;;;;5015695;28;20577;-89
2021/05/24 06:02:01;;;;;;;7.30;3.57;;;11.40;99.90;;;;;;5015339;28;20470;-89
2021/05/24 06:04:27;;;;;;;4.20;3.90;;;11.40;99.90;;;;;;5015539;28;20454;-88
2021/05/24 06:06:53;;;;;;;6.07;4.30;;;11.50;99.70;;;;;;5011955;28;20447;-88
2021/05/24 06:09:19;;;;;;;3.53;3.23;;;11.50;99.20;;;;;;4997372;28;20804;-89
2021/05/24 06:11:46;;;;;;;5.03;3.87;;;11.60;99.40;;;;;;4995818;28;21003;-89
2021/05/24 06:14:13;;;;;;;4.73;3.50;;;11.70;99.20;;;;;;4996046;28;20530;-89
2021/05/24 06:16:40;;;;;;;3.83;3.53;;;11.80;99.10;;;;;;4996156;28;21022;-89
2021/05/24 06:19:06;;;;;;;4.40;4.00;;;11.90;99.10;;;;;;4995865;28;20952;-89
2021/05/24 06:21:32;;;;;;;5.20;3.70;;;12.00;98.50;;;;;;5014673;28;20476;-89
2021/05/24 06:23:58;;;;;;;6.83;4.27;;;12.20;98.00;;;;;;5018327;28;20449;-88
2021/05/24 06:26:25;;;;;;;4.77;3.73;;;12.40;97.60;;;;;;5015626;28;20477;-88
2021/05/24 06:28:52;;;;;;;5.80;3.87;;;12.60;97.10;;;;;;5017119;28;20439;-88
2021/05/24 06:31:19;;;;;;;5.00;3.73;;;12.90;96.10;;;;;;5013649;28;20482;-88
2021/05/24 06:33:46;;;;;;;3.20;2.90;;;13.10;95.70;;;;;;5024273;28;20442;-87
2021/05/24 06:36:12;;;;;;;4.23;3.83;;;13.10;94.90;;;;;;5029916;28;20481;-88
2021/05/24 06:38:39;;;;;;;4.13;3.30;;;13.10;94.80;;;;;;5024506;28;20510;-89
2021/05/24 06:41:06;;;;;;;4.30;3.77;;;13.20;94.60;;;;;;5020381;28;20463;-88
2021/05/24 06:43:32;;;;;;;5.17;3.40;;;13.30;94.70;;;;;;5018594;28;20443;-89
2021/05/24 06:45:59;;;;;;;3.30;3.00;;;13.40;94.50;;;;;;5013369;28;20445;-90
2021/05/24 06:48:27;;;;;;;2.97;2.67;;;13.40;93.80;;;;;;5011240;28;20465;-88
2021/05/24 06:50:54;;;;;;;3.60;3.30;;;13.40;93.40;;;;;;5017563;28;20490;-90
2021/05/24 06:53:22;;;;;;;3.50;3.10;;;13.40;93.40;;;;;;5001864;28;20443;-90
2021/05/24 06:55:48;;;;;;;3.20;2.90;;;13.50;93.50;;;;;;4997891;28;20454;-89
2021/05/24 06:58:14;;;;;;;3.90;3.00;;;13.60;93.40;;;;;;5008649;28;20475;-89
2021/05/24 07:00:44;;;;;;;5.83;3.80;;;13.60;93.10;;;;;;5018395;28;20483;-89
2021/05/24 07:03:10;;;;;;;3.90;3.30;;;13.80;93.10;;;;;;5034689;28;20478;-88
2021/05/24 07:05:38;;;;;;;4.00;3.23;;;13.80;92.60;;;;;;5027621;28;20539;-89
2021/05/24 07:08:04;;;;;;;4.47;3.30;;;13.90;92.80;;;;;;4997640;28;20856;-89
2021/05/24 07:10:31;;;;;;;4.80;3.10;;;14.10;93.10;;;;;;4996242;28;20605;-91
2021/05/24 07:12:57;;;;;;;3.90;3.60;;;14.40;92.20;;;;;;4999086;28;20822;-89
2021/05/24 07:15:24;;;;;;;3.40;3.10;;;14.60;91.50;;;;;;5014811;28;20479;-89
2021/05/24 07:17:50;;;;;;;5.53;4.10;;;15.20;91.50;;;;;;5021557;28;20496;-89
2021/05/24 07:20:17;;;;;;;3.40;3.10;;;16.00;90.00;;;;;;5021675;28;20473;-89
2021/05/24 07:22:44;;;;;;;3.33;2.77;;;16.10;85.70;;;;;;5010007;28;20454;-88
2021/05/24 07:25:12;;;;;;;2.70;2.50;;;16.40;83.90;;;;;;4999928;28;20461;-89
2021/05/24 07:27:38;;;;;;;3.03;2.80;;;16.80;83.30;;;;;;5017304;28;20486;-89
2021/05/24 07:30:06;;;;;;;2.90;2.40;;;16.90;81.30;;;;;;5017415;28;20469;-89
2021/05/24 07:32:33;;;;;;;3.73;2.63;;;16.90;80.60;;;;;;5017641;28;20506;-89
2021/05/24 07:34:59;;;;;;;3.80;3.40;;;16.80;80.00;;;;;;5017146;28;20533;-89
2021/05/24 07:37:26;;;;;;;2.83;2.63;;;16.60;80.50;;;;;;5017084;28;20974;-89
2021/05/24 07:39:53;;;;;;;3.10;2.30;;;16.60;81.20;;;;;;5009699;28;20439;-89
2021/05/24 07:42:20;;;;;;;4.60;2.73;;;16.80;80.60;;;;;;4996923;28;20519;-89
2021/05/24 07:44:46;;;;;;;4.70;3.13;;;16.80;78.60;;;;;;4997264;28;20545;-89
2021/05/24 07:47:13;;;;;;;2.63;2.43;;;16.70;77.80;;;;;;4997857;28;20451;-89
2021/05/24 07:49:39;;;;;;;2.97;2.73;;;16.70;78.40;;;;;;5004408;28;20482;-89
2021/05/24 07:52:09;;;;;;;3.20;2.90;;;16.50;79.70;;;;;;5000265;28;21063;-89
2021/05/24 07:54:36;;;;;;;3.93;2.53;;;16.40;79.30;;;;;;5005323;28;20462;-88
2021/05/24 07:57:03;;;;;;;5.00;2.80;;;16.10;79.00;;;;;;5006827;28;20821;-88
2021/05/24 07:59:30;;;;;;;2.53;2.30;;;16.00;80.10;;;;;;5000257;28;20456;-89
2021/05/24 08:01:59;;;;;;;3.00;2.43;;;15.80;79.80;;;;;;4998126;28;20541;-89
2021/05/24 08:04:26;;;;;;;5.33;2.33;;;15.70;80.40;;;;;;5000832;28;20462;-89
2021/05/24 08:06:52;;;;;;;6.50;2.60;;;15.60;82.30;;;;;;4997444;28;20938;-89
2021/05/24 08:09:19;;;;;;;3.57;2.73;;;15.60;82.40;;;;;;4998420;28;20453;-89
2021/05/24 08:11:46;;;;;;;3.40;2.40;;;15.50;82.20;;;;;;4997311;28;20983;-89
2021/05/24 08:14:15;;;;;;;4.40;3.37;;;15.70;82.90;;;;;;4995492;28;20492;-89
2021/05/24 08:16:42;;;;;;;3.80;2.53;;;15.70;81.80;;;;;;4996245;28;20931;-89
2021/05/24 08:19:09;;;;;;;2.93;2.63;;;15.70;81.30;;;;;;4996104;28;20483;-90
2021/05/24 08:27:46;;;;;;;3.40;3.10;;;16.20;80.70;;;;;;5013613;28;20487;-88
2021/05/24 08:30:55;;;;;;;3.40;2.53;;;16.20;79.30;;;;;;5011767;28;20450;-88
2021/05/24 08:34:07;;;;;;;1.90;1.80;;;16.30;79.40;;;;;;5012461;28;20482;-88
2021/05/24 08:39:27;;;;;;;5.73;2.80;;;17.20;77.90;;;;;;4980171;28;20489;-89
2021/05/24 09:13:23;;;;;;;;;;;;;;;;;;;;;
2021/05/24 09:19:32;;;;;;;2.30;2.03;;;22.80;60.00;;;;;;4821820;29;20475;-89
2021/05/24 09:26:21;;;;;;;2.03;1.83;;;23.00;57.90;;;;;;4841548;29;20459;-89
2021/05/24 09:29:13;;;;;;;4.93;1.90;;;22.80;57.90;;;;;;4822023;29;20459;-89
2021/05/24 09:46:24;;;;;;;2.40;1.53;;;22.10;58.80;;;;;;4895800;29;20470;-89
2021/05/24 09:49:29;;;;;;;;;;;;;;;;;;;;;
2021/05/24 09:52:24;;;;;;;3.50;2.57;;;21.80;60.20;;;;;;4977211;28;20462;-88
2021/05/24 09:55:51;;;;;;;4.23;2.07;;;21.60;59.90;;;;;;4977769;28;20476;-88
2021/05/24 09:59:12;;;;;;;3.00;1.87;;;21.60;62.00;;;;;;4989265;28;20566;-89
2021/05/24 10:02:15;;;;;;;2.67;1.60;;;22.10;61.10;;;;;;4994713;28;20862;-90
2021/05/24 10:08:29;;;;;;;3.23;1.83;;;22.20;59.70;;;;;;5009644;28;20469;-89
2021/05/24 10:11:34;;;;;;;4.03;2.33;;;22.00;60.80;;;;;;5009265;28;20492;-87
2021/05/24 10:14:29;;;;;;;;;;;;;;;;;;;;;
2021/05/24 10:17:50;;;;;;;3.30;2.30;;;21.10;63.20;;;;;;5006475;28;20477;-88
2021/05/24 10:20:32;;;;;;;3.37;2.27;;;20.60;64.40;;;;;;5002612;28;20565;-88
2021/05/24 10:23:43;;;;;;;2.17;1.97;;;20.50;66.80;;;;;;4977922;28;20455;-88
2021/05/24 10:30:20;;;;;;;2.47;1.80;;;20.80;67.50;;;;;;4975989;28;20967;-87
2021/05/24 10:33:54;;;;;;;1.67;1.30;;;21.00;65.90;;;;;;4961531;28;20454;-88
2021/05/24 10:36:53;;;;;;;2.43;1.80;;;21.10;65.40;;;;;;4934624;29;20465;-89
2021/05/24 10:42:55;;;;;;;2.70;1.63;;;21.30;64.70;;;;;;4912307;28;20543;-89
2021/05/24 10:46:24;;;;;;;5.00;2.00;;;21.20;64.50;;;;;;4977576;28;20471;-88
2021/05/24 10:49:46;;;;;;;1.93;1.73;;;21.40;65.70;;;;;;4908148;29;20954;-89
2021/05/24 10:52:39;;;;;;;2.50;1.80;;;21.40;63.70;;;;;;4916455;29;20462;-90
2021/05/24 10:55:47;;;;;;;1.90;1.77;;;21.10;64.70;;;;;;4917497;29;20995;-89
2021/05/24 10:58:52;;;;;;;;;;;;;;;;;;;;;
2021/05/24 11:02:00;;;;;;;2.00;1.80;;;21.10;65.40;;;;;;4998207;28;20461;-88
2021/05/24 11:05:12;;;;;;;2.83;2.63;;;21.10;63.80;;;;;;4997850;28;20441;-89
2021/05/24 11:08:06;;;;;;;2.10;1.57;;;21.20;64.20;;;;;;5016071;28;20458;-89
2021/05/24 11:10:46;;;;;;;2.07;1.50;;;21.10;65.70;;;;;;5017467;28;20466;-88
2021/05/24 11:14:22;;;;;;;1.60;1.50;;;21.30;64.50;;;;;;5003136;28;20449;-88
2021/05/24 11:20:55;;;;;;;2.37;1.80;;;21.40;63.60;;;;;;4995370;28;20441;-89
2021/05/24 11:27:04;;;;;;;2.77;1.83;;;21.30;64.20;;;;;;4978889;28;20476;-88
2021/05/24 11:29:50;;;;;;;3.00;1.50;;;21.70;64.30;;;;;;4993841;28;20455;-88
2021/05/24 11:32:45;;;;;;;3.13;2.00;;;22.50;62.30;;;;;;4978009;28;20457;-89
2021/05/24 11:35:41;;;;;;;3.07;1.80;;;23.30;61.00;;;;;;4989395;28;20532;-88
2021/05/24 11:38:53;;;;;;;2.20;1.87;;;24.00;58.30;;;;;;4980593;28;20477;-88
2021/05/24 11:41:43;;;;;;;;;;;;;;;;;;;;;
2021/05/24 11:54:33;;;;;;;2.40;1.73;;;26.70;52.30;;;;;;4939566;28;20962;-88
2021/05/24 12:08:54;;;;;;;3.10;1.80;;;25.70;52.20;;;;;;5035187;28;20947;-90
2021/05/24 12:15:23;;;;;;;3.20;1.60;;;25.00;53.30;;;;;;5016893;28;20437;-91
2021/05/24 12:18:06;;;;;;;2.40;2.20;;;24.60;54.60;;;;;;5019046;28;20503;-93
2021/05/24 12:20:32;;;;;;;3.40;1.60;;;24.90;54.70;;;;;;5015624;28;20932;-88
2021/05/24 12:22:58;;;;;;;2.23;1.63;;;24.60;53.60;;;;;;5019850;28;20946;-84
2021/05/24 12:25:24;;;;;;;3.40;1.47;;;23.90;54.10;;;;;;5030402;28;20482;-86
2021/05/24 12:27:52;;;;;;;1.60;1.30;;;23.40;55.60;;;;;;5016561;28;20485;-87
2021/05/24 12:30:24;;;;;;;1.50;1.40;;;23.00;56.50;;;;;;5004241;28;20473;-84
2021/05/24 12:32:54;;;;;;;2.30;1.30;;;22.90;54.90;;;;;;5013891;28;20459;-86
2021/05/24 12:35:24;;;;;;;1.70;1.20;;;22.70;56.40;;;;;;5002516;28;20477;-86
2021/05/24 12:38:06;;;;;;;2.73;1.43;;;22.40;55.70;;;;;;5002667;28;20538;-84
2021/05/24 12:40:37;;;;;;;1.60;1.30;;;22.20;56.00;;;;;;5018353;28;20463;-87
2021/05/24 12:43:04;;;;;;;2.17;1.80;;;22.20;55.80;;;;;;5030609;28;20987;-90
2021/05/24 12:45:32;;;;;;;1.50;1.10;;;22.40;55.60;;;;;;5021151;28;20457;-90
2021/05/24 12:48:00;;;;;;;1.77;1.20;;;22.60;55.50;;;;;;5019094;28;20463;-88
2021/05/24 12:50:29;;;;;;;3.83;1.50;;;22.80;54.70;;;;;;5003962;28;20564;-88
2021/05/24 12:53:08;;;;;;;2.13;1.60;;;23.30;54.70;;;;;;5013893;28;20439;-88
2021/05/24 12:55:34;;;;;;;2.57;1.40;;;23.70;53.50;;;;;;5018087;28;20489;-88
2021/05/24 12:58:10;;;;;;;4.40;1.50;;;23.70;53.40;;;;;;5021958;28;20483;-89
2021/05/24 13:00:41;;;;;;;2.73;2.33;;;23.50;53.10;;;;;;5016529;28;20470;-89
2021/05/24 13:03:07;;;;;;;4.27;1.40;;;23.30;54.10;;;;;;5016303;28;20459;-88
2021/05/24 13:05:34;;;;;;;2.00;1.30;;;22.90;53.70;;;;;;5017011;28;20455;-88
2021/05/24 13:08:02;;;;;;;1.47;1.30;;;22.50;53.30;;;;;;5017159;28;20459;-88
2021/05/24 13:10:30;;;;;;;5.30;1.40;;;22.20;54.30;;;;;;5028319;28;20463;-88
2021/05/24 13:13:00;;;;;;;1.77;1.67;;;21.90;55.00;;;;;;5031608;28;20442;-89
2021/05/24 13:15:35;;;;;;;2.20;1.43;;;21.90;56.60;;;;;;4998718;28;20447;-88
2021/05/24 13:18:06;;;;;;;2.33;1.30;;;21.60;55.80;;;;;;5015276;28;20485;-88
2021/05/24 13:20:56;;;;;;;1.67;1.40;;;21.50;57.00;;;;;;5010522;28;20473;-88
2021/05/24 13:29:03;;;;;;;3.73;1.87;;;21.70;56.10;;;;;;5013429;28;20437;-89
2021/05/24 13:31:35;;;;;;;2.37;1.53;;;21.70;56.30;;;;;;5032030;28;20446;-88
2021/05/24 13:34:03;;;;;;;4.50;1.60;;;21.70;57.10;;;;;;5033747;28;20454;-88
2021/05/24 13:36:32;;;;;;;3.00;1.50;;;22.00;57.70;;;;;;5036483;28;20447;-89
2021/05/24 13:39:13;;;;;;;3.33;2.07;;;22.20;56.90;;;;;;5025855;28;20449;-89
2021/05/24 13:41:41;;;;;;;2.37;1.47;;;22.20;56.40;;;;;;5022488;28;21042;-88
2021/05/24 13:44:12;;;;;;;8.33;2.30;;;22.20;57.10;;;;;;5012904;28;20447;-90
2021/05/24 13:46:41;;;;;;;2.70;1.73;;;22.20;58.20;;;;;;4998708;28;20451;-88
2021/05/24 13:49:10;;;;;;;1.90;1.63;;;22.10;57.10;;;;;;4997150;28;20475;-89
2021/05/24 13:51:38;;;;;;;2.33;1.30;;;21.90;57.80;;;;;;4996657;28;20458;-89
2021/05/24 13:54:05;;;;;;;3.10;1.60;;;21.60;57.60;;;;;;4996781;28;21033;-88
2021/05/24 13:56:31;;;;;;;2.90;1.43;;;21.50;57.90;;;;;;4995550;28;20888;-89
2021/05/24 13:58:57;;;;;;;2.03;1.83;;;21.40;57.90;;;;;;4999180;28;20476;-88
2021/05/24 14:01:24;;;;;;;2.30;1.33;;;21.50;56.60;;;;;;5012693;28;20840;-88
2021/05/24 14:03:50;;;;;;;2.63;1.50;;;21.50;56.70;;;;;;5018902;28;20538;-88
2021/05/24 14:06:18;;;;;;;2.40;1.30;;;21.60;57.20;;;;;;5018502;28;20833;-90
2021/05/24 14:08:45;;;;;;;1.57;1.13;;;21.50;56.90;;;;;;5018155;28;20439;-90
2021/05/24 14:11:12;;;;;;;2.80;1.90;;;21.50;55.30;;;;;;5022588;28;20453;-88
2021/05/24 14:13:38;;;;;;;1.40;1.30;;;21.50;55.90;;;;;;5019850;28;20573;-89
2021/05/24 14:16:10;;;;;;;3.50;1.47;;;21.40;55.60;;;;;;5018565;28;21000;-88
2021/05/24 14:18:36;;;;;;;3.50;1.57;;;21.30;56.60;;;;;;5017375;28;20498;-90
2021/05/24 14:21:03;;;;;;;2.40;2.03;;;21.30;57.40;;;;;;5018484;28;20474;-87
2021/05/24 14:23:30;;;;;;;3.00;1.63;;;21.30;57.20;;;;;;5017216;28;20522;-90
2021/05/24 14:25:57;;;;;;;2.80;1.97;;;21.40;57.90;;;;;;5017191;28;20463;-89
2021/05/24 14:28:23;;;;;;;2.23;1.90;;;21.60;58.50;;;;;;5005461;28;20459;-89
2021/05/24 14:30:51;;;;;;;2.60;1.77;;;21.90;57.10;;;;;;4996864;28;20475;-88
2021/05/24 14:33:17;;;;;;;3.53;1.30;;;22.20;57.40;;;;;;4995121;28;20457;-88
2021/05/24 14:35:43;;;;;;;1.70;1.60;;;22.30;56.70;;;;;;4995186;28;20447;-89
2021/05/24 14:38:10;;;;;;;1.70;1.60;;;22.30;56.10;;;;;;4996553;28;20580;-88
2021/05/24 14:40:37;;;;;;;1.93;1.50;;;22.50;56.50;;;;;;5001760;28;20984;-88
2021/05/24 14:43:03;;;;;;;2.20;1.43;;;22.10;53.70;;;;;;5006048;28;20448;-89
2021/05/24 14:45:30;;;;;;;2.50;1.40;;;22.00;55.50;;;;;;5018428;28;20451;-89
2021/05/24 14:47:56;;;;;;;3.20;1.90;;;22.00;56.00;;;;;;5022270;28;20449;-88
2021/05/24 14:50:24;;;;;;;7.50;2.10;;;21.80;55.80;;;;;;5009481;28;20483;-88
2021/05/24 14:52:53;;;;;;;1.63;1.33;;;21.40;54.20;;;;;;5007921;28;20427;-89
2021/05/24 14:55:21;;;;;;;1.90;0.90;;;21.20;54.40;;;;;;5025606;28;20466;-88
2021/05/24 14:57:48;;;;;;;3.60;0.87;;;21.00;53.00;;;;;;5003306;28;20480;-88
2021/05/24 15:00:15;;;;;;;2.63;1.20;;;21.00;53.80;;;;;;5003439;28;20479;-88
2021/05/24 15:02:44;;;;;;;2.30;0.90;;;21.10;53.60;;;;;;5006589;28;20582;-88
2021/05/24 15:05:11;;;;;;;2.07;1.07;;;21.10;52.20;;;;;;5019323;28;20461;-88
2021/05/24 15:07:38;;;;;;;1.70;1.13;;;21.20;51.40;;;;;;5017347;28;20461;-89
2021/05/24 15:10:05;;;;;;;1.37;0.90;;;21.20;51.60;;;;;;5021197;28;20480;-88